sensor_id;sensor_type;location;lat;lon;timestamp;temperature;humidity
6738;DHT22;3406;49.902;8.596;2024-01-10T00:02:25;-4.10;52.80
6738;DHT22;3406;49.902;8.596;2024-01-10T00:04:52;-4.10;52.90
6738;DHT22;3406;49.902;8.596;2024-01-10T00:07:19;-4.10;53.10
6738;DHT22;3406;49.902;8.596;2024-01-10T00:09:46;-4.20;52.90
6738;DHT22;3406;49.902;8.596;2024-01-10T00:12:14;-4.10;53.00
6738;DHT22;3406;49.902;8.596;2024-01-10T00:14:40;-4.10;52.90
6738;DHT22;3406;49.902;8.596;2024-01-10T00:17:07;-4.10;53.00
6738;DHT22;3406;49.902;8.596;2024-01-10T00:19:33;-4.10;53.00
6738;DHT22;3406;49.902;8.596;2024-01-10T00:22:01;-4.10;53.00
6738;DHT22;3406;49.902;8.596;2024-01-10T00:24:27;-4.10;53.00
6738;DHT22;3406;49.902;8.596;2024-01-10T00:26:54;-4.10;53.00
6738;DHT22;3406;49.902;8.596;2024-01-10T00:29:22;-4.10;53.00
6738;DHT22;3406;49.902;8.596;2024-01-10T00:31:49;-4.00;53.10
6738;DHT22;3406;49.902;8.596;2024-01-10T00:34:17;-4.10;53.10
6738;DHT22;3406;49.902;8.596;2024-01-10T00:36:44;-4.10;53.10
6738;DHT22;3406;49.902;8.596;2024-01-10T00:39:11;-4.10;53.10
6738;DHT22;3406;49.902;8.596;2024-01-10T00:41:38;-4.10;53.10
6738;DHT22;3406;49.902;8.596;2024-01-10T00:44:04;-4.10;53.10
6738;DHT22;3406;49.902;8.596;2024-01-10T00:46:32;-4.10;53.20
6738;DHT22;3406;49.902;8.596;2024-01-10T00:48:59;-4.10;53.20
6738;DHT22;3406;49.902;8.596;2024-01-10T00:51:26;-4.10;53.20
6738;DHT22;3406;49.902;8.596;2024-01-10T00:53:52;-4.10;53.30
6738;DHT22;3406;49.902;8.596;2024-01-10T00:56:19;-4.20;53.30
6738;DHT22;3406;49.902;8.596;2024-01-10T00:58:46;-4.10;53.40
6738;DHT22;3406;49.902;8.596;2024-01-10T01:01:12;-4.20;53.40
6738;DHT22;3406;49.902;8.596;2024-01-10T01:03:41;-4.20;53.50
6738;DHT22;3406;49.902;8.596;2024-01-10T01:06:07;-4.20;53.60
6738;DHT22;3406;49.902;8.596;2024-01-10T01:08:34;-4.20;53.60
6738;DHT22;3406;49.902;8.596;2024-01-10T01:11:01;-4.20;53.70
6738;DHT22;3406;49.902;8.596;2024-01-10T01:13:27;-4.30;53.60
6738;DHT22;3406;49.902;8.596;2024-01-10T01:15:54;-4.30;53.70
6738;DHT22;3406;49.902;8.596;2024-01-10T01:18:21;-4.30;53.80
6738;DHT22;3406;49.902;8.596;2024-01-10T01:20:49;-4.30;53.90
6738;DHT22;3406;49.902;8.596;2024-01-10T01:23:16;-4.30;54.00
6738;DHT22;3406;49.902;8.596;2024-01-10T01:25:42;-4.30;54.00
6738;DHT22;3406;49.902;8.596;2024-01-10T01:28:09;-4.40;54.00
6738;DHT22;3406;49.902;8.596;2024-01-10T01:30:35;-4.30;54.10
6738;DHT22;3406;49.902;8.596;2024-01-10T01:33:03;-4.40;54.00
6738;DHT22;3406;49.902;8.596;2024-01-10T01:35:30;-4.40;54.10
6738;DHT22;3406;49.902;8.596;2024-01-10T01:37:58;-4.40;54.20
6738;DHT22;3406;49.902;8.596;2024-01-10T01:40:25;-4.40;54.30
6738;DHT22;3406;49.902;8.596;2024-01-10T01:42:51;-4.40;54.40
6738;DHT22;3406;49.902;8.596;2024-01-10T01:45:19;-4.40;54.40
6738;DHT22;3406;49.902;8.596;2024-01-10T01:47:45;-4.40;54.40
6738;DHT22;3406;49.902;8.596;2024-01-10T01:50:12;-4.40;54.40
6738;DHT22;3406;49.902;8.596;2024-01-10T01:52:39;-4.40;54.40
6738;DHT22;3406;49.902;8.596;2024-01-10T01:55:08;-4.40;54.50
6738;DHT22;3406;49.902;8.596;2024-01-10T01:57:35;-4.40;54.50
6738;DHT22;3406;49.902;8.596;2024-01-10T02:00:02;-4.40;54.70
6738;DHT22;3406;49.902;8.596;2024-01-10T02:02:30;-4.40;54.60
6738;DHT22;3406;49.902;8.596;2024-01-10T02:04:57;-4.30;54.70
6738;DHT22;3406;49.902;8.596;2024-01-10T02:07:24;-4.30;54.70
6738;DHT22;3406;49.902;8.596;2024-01-10T02:09:51;-4.40;54.60
6738;DHT22;3406;49.902;8.596;2024-01-10T02:12:19;-4.40;54.60
6738;DHT22;3406;49.902;8.596;2024-01-10T02:14:46;-4.40;54.70
6738;DHT22;3406;49.902;8.596;2024-01-10T02:17:13;-4.40;54.70
6738;DHT22;3406;49.902;8.596;2024-01-10T02:19:40;-4.40;54.70
6738;DHT22;3406;49.902;8.596;2024-01-10T02:22:07;-4.40;54.70
6738;DHT22;3406;49.902;8.596;2024-01-10T02:24:34;-4.40;54.80
6738;DHT22;3406;49.902;8.596;2024-01-10T02:27:02;-4.40;54.80
6738;DHT22;3406;49.902;8.596;2024-01-10T02:29:30;-4.40;54.80
6738;DHT22;3406;49.902;8.596;2024-01-10T02:31:56;-4.40;54.80
6738;DHT22;3406;49.902;8.596;2024-01-10T02:34:23;-4.40;54.90
6738;DHT22;3406;49.902;8.596;2024-01-10T02:36:50;-4.40;54.90
6738;DHT22;3406;49.902;8.596;2024-01-10T02:39:16;-4.40;55.00
6738;DHT22;3406;49.902;8.596;2024-01-10T02:41:43;-4.50;54.90
6738;DHT22;3406;49.902;8.596;2024-01-10T02:44:11;-4.50;54.90
6738;DHT22;3406;49.902;8.596;2024-01-10T02:46:39;-4.50;55.00
6738;DHT22;3406;49.902;8.596;2024-01-10T02:49:06;-4.40;55.10
6738;DHT22;3406;49.902;8.596;2024-01-10T02:51:33;-4.50;55.00
6738;DHT22;3406;49.902;8.596;2024-01-10T02:53:59;-4.50;55.10
6738;DHT22;3406;49.902;8.596;2024-01-10T02:56:26;-4.50;55.00
6738;DHT22;3406;49.902;8.596;2024-01-10T02:58:53;-4.40;55.10
6738;DHT22;3406;49.902;8.596;2024-01-10T03:01:21;-4.40;55.10
6738;DHT22;3406;49.902;8.596;2024-01-10T03:03:47;-4.40;55.10
6738;DHT22;3406;49.902;8.596;2024-01-10T03:06:14;-4.40;55.10
6738;DHT22;3406;49.902;8.596;2024-01-10T03:08:41;-4.40;55.10
6738;DHT22;3406;49.902;8.596;2024-01-10T03:11:07;-4.40;55.20
6738;DHT22;3406;49.902;8.596;2024-01-10T03:13:34;-4.40;55.20
6738;DHT22;3406;49.902;8.596;2024-01-10T03:16:01;-4.40;55.20
6738;DHT22;3406;49.902;8.596;2024-01-10T03:18:29;-4.40;55.20
6738;DHT22;3406;49.902;8.596;2024-01-10T03:20:55;-4.40;55.30
6738;DHT22;3406;49.902;8.596;2024-01-10T03:23:22;-4.40;55.30
6738;DHT22;3406;49.902;8.596;2024-01-10T03:25:49;-4.40;55.40
6738;DHT22;3406;49.902;8.596;2024-01-10T03:28:16;-4.40;55.50
6738;DHT22;3406;49.902;8.596;2024-01-10T03:30:43;-4.40;55.50
6738;DHT22;3406;49.902;8.596;2024-01-10T03:33:10;-4.40;55.50
6738;DHT22;3406;49.902;8.596;2024-01-10T03:35:38;-4.30;55.50
6738;DHT22;3406;49.902;8.596;2024-01-10T03:38:05;-4.40;55.40
6738;DHT22;3406;49.902;8.596;2024-01-10T03:40:31;-4.30;55.50
6738;DHT22;3406;49.902;8.596;2024-01-10T03:42:58;-4.30;55.40
6738;DHT22;3406;49.902;8.596;2024-01-10T03:45:24;-4.30;55.50
6738;DHT22;3406;49.902;8.596;2024-01-10T03:47:51;-4.20;55.50
6738;DHT22;3406;49.902;8.596;2024-01-10T03:50:19;-4.20;55.40
6738;DHT22;3406;49.902;8.596;2024-01-10T03:52:47;-4.20;55.50
6738;DHT22;3406;49.902;8.596;2024-01-10T03:55:14;-4.20;55.40
6738;DHT22;3406;49.902;8.596;2024-01-10T03:57:41;-4.20;55.40
6738;DHT22;3406;49.902;8.596;2024-01-10T04:00:09;-4.20;55.40
6738;DHT22;3406;49.902;8.596;2024-01-10T04:02:37;-4.20;55.40
6738;DHT22;3406;49.902;8.596;2024-01-10T04:05:05;-4.20;55.40
6738;DHT22;3406;49.902;8.596;2024-01-10T04:07:32;-4.20;55.40
6738;DHT22;3406;49.902;8.596;2024-01-10T04:10:00;-4.20;55.40
6738;DHT22;3406;49.902;8.596;2024-01-10T04:12:26;-4.20;55.40
6738;DHT22;3406;49.902;8.596;2024-01-10T04:14:53;-4.20;55.40
6738;DHT22;3406;49.902;8.596;2024-01-10T04:17:20;-4.20;55.40
6738;DHT22;3406;49.902;8.596;2024-01-10T04:19:46;-4.20;55.50
6738;DHT22;3406;49.902;8.596;2024-01-10T04:22:12;-4.20;55.50
6738;DHT22;3406;49.902;8.596;2024-01-10T04:24:39;-4.20;55.50
6738;DHT22;3406;49.902;8.596;2024-01-10T04:27:07;-4.20;55.60
6738;DHT22;3406;49.902;8.596;2024-01-10T04:29:33;-4.20;55.60
6738;DHT22;3406;49.902;8.596;2024-01-10T04:32:00;-4.20;55.60
6738;DHT22;3406;49.902;8.596;2024-01-10T04:34:27;-4.20;55.60
6738;DHT22;3406;49.902;8.596;2024-01-10T04:36:53;-4.20;55.60
6738;DHT22;3406;49.902;8.596;2024-01-10T04:39:20;-4.20;55.60
6738;DHT22;3406;49.902;8.596;2024-01-10T04:41:47;-4.20;55.60
6738;DHT22;3406;49.902;8.596;2024-01-10T04:44:15;-4.20;55.60
6738;DHT22;3406;49.902;8.596;2024-01-10T04:46:41;-4.20;55.60
6738;DHT22;3406;49.902;8.596;2024-01-10T04:49:08;-4.20;55.70
6738;DHT22;3406;49.902;8.596;2024-01-10T04:51:35;-4.30;55.60
6738;DHT22;3406;49.902;8.596;2024-01-10T04:54:02;-4.30;55.60
6738;DHT22;3406;49.902;8.596;2024-01-10T04:56:29;-4.30;55.60
6738;DHT22;3406;49.902;8.596;2024-01-10T04:58:55;-4.20;55.80
6738;DHT22;3406;49.902;8.596;2024-01-10T05:01:23;-4.20;55.70
6738;DHT22;3406;49.902;8.596;2024-01-10T05:03:50;-4.20;55.70
6738;DHT22;3406;49.902;8.596;2024-01-10T05:06:17;-4.20;55.70
6738;DHT22;3406;49.902;8.596;2024-01-10T05:08:43;-4.20;55.70
6738;DHT22;3406;49.902;8.596;2024-01-10T05:11:10;-4.20;55.70
6738;DHT22;3406;49.902;8.596;2024-01-10T05:13:37;-4.20;55.70
6738;DHT22;3406;49.902;8.596;2024-01-10T05:16:05;-4.20;55.70
6738;DHT22;3406;49.902;8.596;2024-01-10T05:18:33;-4.20;55.70
6738;DHT22;3406;49.902;8.596;2024-01-10T05:21:00;-4.20;55.80
6738;DHT22;3406;49.902;8.596;2024-01-10T05:23:27;-4.20;55.70
6738;DHT22;3406;49.902;8.596;2024-01-10T05:25:53;-4.10;55.80
6738;DHT22;3406;49.902;8.596;2024-01-10T05:28:20;-4.10;55.80
6738;DHT22;3406;49.902;8.596;2024-01-10T05:30:47;-4.10;55.80
6738;DHT22;3406;49.902;8.596;2024-01-10T05:33:13;-4.10;55.80
6738;DHT22;3406;49.902;8.596;2024-01-10T05:35:42;-4.10;55.70
6738;DHT22;3406;49.902;8.596;2024-01-10T05:38:08;-4.20;55.70
6738;DHT22;3406;49.902;8.596;2024-01-10T05:40:35;-4.20;55.80
6738;DHT22;3406;49.902;8.596;2024-01-10T05:43:02;-4.20;55.90
6738;DHT22;3406;49.902;8.596;2024-01-10T05:45:28;-4.20;55.90
6738;DHT22;3406;49.902;8.596;2024-01-10T05:47:56;-4.20;56.00
6738;DHT22;3406;49.902;8.596;2024-01-10T05:50:23;-4.20;56.00
6738;DHT22;3406;49.902;8.596;2024-01-10T05:52:51;-4.20;56.00
6738;DHT22;3406;49.902;8.596;2024-01-10T05:55:18;-4.30;55.90
6738;DHT22;3406;49.902;8.596;2024-01-10T05:57:45;-4.20;56.10
6738;DHT22;3406;49.902;8.596;2024-01-10T06:00:12;-4.30;56.00
6738;DHT22;3406;49.902;8.596;2024-01-10T06:02:42;-4.30;56.10
6738;DHT22;3406;49.902;8.596;2024-01-10T06:05:09;-4.30;56.10
6738;DHT22;3406;49.902;8.596;2024-01-10T06:07:37;-4.40;56.20
6738;DHT22;3406;49.902;8.596;2024-01-10T06:10:06;-4.40;56.20
6738;DHT22;3406;49.902;8.596;2024-01-10T06:12:33;-4.40;56.20
6738;DHT22;3406;49.902;8.596;2024-01-10T06:14:59;-4.40;56.30
6738;DHT22;3406;49.902;8.596;2024-01-10T06:17:26;-4.50;56.30
6738;DHT22;3406;49.902;8.596;2024-01-10T06:19:53;-4.50;56.40
6738;DHT22;3406;49.902;8.596;2024-01-10T06:22:19;-4.60;56.50
6738;DHT22;3406;49.902;8.596;2024-01-10T06:24:50;-4.60;56.70
6738;DHT22;3406;49.902;8.596;2024-01-10T06:27:18;-4.60;56.80
6738;DHT22;3406;49.902;8.596;2024-01-10T06:29:45;-4.60;56.80
6738;DHT22;3406;49.902;8.596;2024-01-10T06:32:11;-4.60;56.90
6738;DHT22;3406;49.902;8.596;2024-01-10T06:34:39;-4.60;56.80
6738;DHT22;3406;49.902;8.596;2024-01-10T06:37:06;-4.60;56.90
6738;DHT22;3406;49.902;8.596;2024-01-10T06:39:33;-4.60;56.90
6738;DHT22;3406;49.902;8.596;2024-01-10T06:42:00;-4.60;57.00
6738;DHT22;3406;49.902;8.596;2024-01-10T06:44:30;-4.60;56.90
6738;DHT22;3406;49.902;8.596;2024-01-10T06:46:57;-4.60;57.00
6738;DHT22;3406;49.902;8.596;2024-01-10T06:49:23;-4.60;57.00
6738;DHT22;3406;49.902;8.596;2024-01-10T06:51:50;-4.60;57.00
6738;DHT22;3406;49.902;8.596;2024-01-10T06:54:17;-4.50;57.00
6738;DHT22;3406;49.902;8.596;2024-01-10T06:56:44;-4.50;57.00
6738;DHT22;3406;49.902;8.596;2024-01-10T06:59:11;-4.50;56.90
6738;DHT22;3406;49.902;8.596;2024-01-10T07:01:39;-4.50;56.90
6738;DHT22;3406;49.902;8.596;2024-01-10T07:04:06;-4.40;57.00
6738;DHT22;3406;49.902;8.596;2024-01-10T07:06:33;-4.40;56.90
6738;DHT22;3406;49.902;8.596;2024-01-10T07:08:59;-4.40;56.90
6738;DHT22;3406;49.902;8.596;2024-01-10T07:11:26;-4.40;56.90
6738;DHT22;3406;49.902;8.596;2024-01-10T07:13:54;-4.40;56.90
6738;DHT22;3406;49.902;8.596;2024-01-10T07:16:21;-4.40;56.90
6738;DHT22;3406;49.902;8.596;2024-01-10T07:18:49;-4.40;56.90
6738;DHT22;3406;49.902;8.596;2024-01-10T07:21:17;-4.30;57.00
6738;DHT22;3406;49.902;8.596;2024-01-10T07:23:43;-4.30;57.00
6738;DHT22;3406;49.902;8.596;2024-01-10T07:26:13;-4.30;56.90
6738;DHT22;3406;49.902;8.596;2024-01-10T07:28:41;-4.30;57.00
6738;DHT22;3406;49.902;8.596;2024-01-10T07:31:08;-4.40;56.90
6738;DHT22;3406;49.902;8.596;2024-01-10T07:33:34;-4.40;56.90
6738;DHT22;3406;49.902;8.596;2024-01-10T07:36:03;-4.40;57.00
6738;DHT22;3406;49.902;8.596;2024-01-10T07:38:30;-4.40;57.10
6738;DHT22;3406;49.902;8.596;2024-01-10T07:40:56;-4.40;57.10
6738;DHT22;3406;49.902;8.596;2024-01-10T07:43:24;-4.40;57.10
6738;DHT22;3406;49.902;8.596;2024-01-10T07:45:52;-4.30;57.20
6738;DHT22;3406;49.902;8.596;2024-01-10T07:48:19;-4.30;57.20
6738;DHT22;3406;49.902;8.596;2024-01-10T07:50:46;-4.30;57.20
6738;DHT22;3406;49.902;8.596;2024-01-10T07:53:14;-4.20;57.20
6738;DHT22;3406;49.902;8.596;2024-01-10T07:55:41;-4.20;57.30
6738;DHT22;3406;49.902;8.596;2024-01-10T07:58:07;-4.20;57.30
6738;DHT22;3406;49.902;8.596;2024-01-10T08:00:34;-4.20;57.30
6738;DHT22;3406;49.902;8.596;2024-01-10T08:03:01;-4.10;57.30
6738;DHT22;3406;49.902;8.596;2024-01-10T08:05:29;-4.10;57.30
6738;DHT22;3406;49.902;8.596;2024-01-10T08:07:55;-4.00;57.30
6738;DHT22;3406;49.902;8.596;2024-01-10T08:10:25;-3.90;57.90
6738;DHT22;3406;49.902;8.596;2024-01-10T08:12:52;-3.90;57.30
6738;DHT22;3406;49.902;8.596;2024-01-10T08:15:19;-3.80;57.30
6738;DHT22;3406;49.902;8.596;2024-01-10T08:17:46;-3.80;57.20
6738;DHT22;3406;49.902;8.596;2024-01-10T08:20:12;-3.80;57.20
6738;DHT22;3406;49.902;8.596;2024-01-10T08:22:40;-3.70;57.20
6738;DHT22;3406;49.902;8.596;2024-01-10T08:25:09;-3.70;57.20
6738;DHT22;3406;49.902;8.596;2024-01-10T08:27:36;-3.60;57.30
6738;DHT22;3406;49.902;8.596;2024-01-10T08:30:03;-3.60;57.20
6738;DHT22;3406;49.902;8.596;2024-01-10T08:32:30;-3.50;57.30
6738;DHT22;3406;49.902;8.596;2024-01-10T08:34:57;-3.40;57.30
6738;DHT22;3406;49.902;8.596;2024-01-10T08:37:24;-3.50;57.00
6738;DHT22;3406;49.902;8.596;2024-01-10T08:39:51;-3.50;57.10
6738;DHT22;3406;49.902;8.596;2024-01-10T08:42:17;-3.50;57.20
6738;DHT22;3406;49.902;8.596;2024-01-10T08:44:45;-3.40;57.30
6738;DHT22;3406;49.902;8.596;2024-01-10T08:47:12;-3.30;57.30
6738;DHT22;3406;49.902;8.596;2024-01-10T08:49:39;-3.20;57.30
6738;DHT22;3406;49.902;8.596;2024-01-10T08:52:05;-3.20;57.20
6738;DHT22;3406;49.902;8.596;2024-01-10T08:54:33;-3.10;57.10
6738;DHT22;3406;49.902;8.596;2024-01-10T08:57:00;-3.00;57.10
6738;DHT22;3406;49.902;8.596;2024-01-10T08:59:26;-2.90;57.10
6738;DHT22;3406;49.902;8.596;2024-01-10T09:01:54;-2.80;57.10
6738;DHT22;3406;49.902;8.596;2024-01-10T09:04:21;-2.80;57.00
6738;DHT22;3406;49.902;8.596;2024-01-10T09:06:48;-2.80;56.90
6738;DHT22;3406;49.902;8.596;2024-01-10T09:09:14;-2.80;56.90
6738;DHT22;3406;49.902;8.596;2024-01-10T09:11:46;-2.70;56.90
6738;DHT22;3406;49.902;8.596;2024-01-10T09:14:13;-2.70;56.90
6738;DHT22;3406;49.902;8.596;2024-01-10T09:16:40;-2.70;56.80
6738;DHT22;3406;49.902;8.596;2024-01-10T09:19:08;-2.60;56.90
6738;DHT22;3406;49.902;8.596;2024-01-10T09:21:35;-2.60;56.80
6738;DHT22;3406;49.902;8.596;2024-01-10T09:24:02;-2.50;56.90
6738;DHT22;3406;49.902;8.596;2024-01-10T09:26:30;-2.50;56.80
6738;DHT22;3406;49.902;8.596;2024-01-10T09:28:57;-2.40;56.80
6738;DHT22;3406;49.902;8.596;2024-01-10T09:31:24;-2.40;56.70
6738;DHT22;3406;49.902;8.596;2024-01-10T09:33:51;-2.30;56.60
6738;DHT22;3406;49.902;8.596;2024-01-10T09:36:19;-2.30;57.10
6738;DHT22;3406;49.902;8.596;2024-01-10T09:38:45;-2.20;56.60
6738;DHT22;3406;49.902;8.596;2024-01-10T09:41:12;-2.20;56.60
6738;DHT22;3406;49.902;8.596;2024-01-10T09:43:39;-2.10;56.60
6738;DHT22;3406;49.902;8.596;2024-01-10T09:46:07;-2.10;56.50
6738;DHT22;3406;49.902;8.596;2024-01-10T09:48:35;-2.10;56.40
6738;DHT22;3406;49.902;8.596;2024-01-10T09:51:01;-2.10;56.40
6738;DHT22;3406;49.902;8.596;2024-01-10T09:53:31;-2.10;56.40
6738;DHT22;3406;49.902;8.596;2024-01-10T09:56:04;-2.10;56.50
6738;DHT22;3406;49.902;8.596;2024-01-10T09:58:31;-2.00;56.40
6738;DHT22;3406;49.902;8.596;2024-01-10T10:01:04;-2.00;56.30
6738;DHT22;3406;49.902;8.596;2024-01-10T10:03:33;-2.00;56.30
6738;DHT22;3406;49.902;8.596;2024-01-10T10:06:02;-2.00;56.20
6738;DHT22;3406;49.902;8.596;2024-01-10T10:08:31;-2.00;56.20
6738;DHT22;3406;49.902;8.596;2024-01-10T10:10:57;-1.90;56.20
6738;DHT22;3406;49.902;8.596;2024-01-10T10:13:25;-1.90;56.10
6738;DHT22;3406;49.902;8.596;2024-01-10T10:15:58;-1.90;56.10
6738;DHT22;3406;49.902;8.596;2024-01-10T10:18:25;-1.80;56.10
6738;DHT22;3406;49.902;8.596;2024-01-10T10:21:06;-1.80;55.90
6738;DHT22;3406;49.902;8.596;2024-01-10T10:23:34;-1.80;55.80
6738;DHT22;3406;49.902;8.596;2024-01-10T10:26:10;-1.70;55.80
6738;DHT22;3406;49.902;8.596;2024-01-10T10:28:40;-1.70;55.80
6738;DHT22;3406;49.902;8.596;2024-01-10T10:31:06;-1.60;55.80
6738;DHT22;3406;49.902;8.596;2024-01-10T10:33:33;-1.60;55.70
6738;DHT22;3406;49.902;8.596;2024-01-10T10:36:00;-1.50;55.60
6738;DHT22;3406;49.902;8.596;2024-01-10T10:38:26;-1.50;55.50
6738;DHT22;3406;49.902;8.596;2024-01-10T10:40:55;-1.40;55.50
6738;DHT22;3406;49.902;8.596;2024-01-10T10:43:22;-1.30;55.50
6738;DHT22;3406;49.902;8.596;2024-01-10T10:45:50;-1.20;55.40
6738;DHT22;3406;49.902;8.596;2024-01-10T10:48:18;-1.20;55.20
6738;DHT22;3406;49.902;8.596;2024-01-10T10:50:59;-1.20;55.00
6738;DHT22;3406;49.902;8.596;2024-01-10T10:53:33;-1.10;55.10
6738;DHT22;3406;49.902;8.596;2024-01-10T10:56:03;-1.10;55.00
6738;DHT22;3406;49.902;8.596;2024-01-10T10:58:33;-1.00;55.00
6738;DHT22;3406;49.902;8.596;2024-01-10T11:01:02;-1.00;54.80
6738;DHT22;3406;49.902;8.596;2024-01-10T11:03:31;-1.00;54.70
6738;DHT22;3406;49.902;8.596;2024-01-10T11:06:01;-0.90;54.70
6738;DHT22;3406;49.902;8.596;2024-01-10T11:08:30;-0.80;54.60
6738;DHT22;3406;49.902;8.596;2024-01-10T11:11:01;-0.70;54.60
6738;DHT22;3406;49.902;8.596;2024-01-10T11:13:42;-0.60;54.40
6738;DHT22;3406;49.902;8.596;2024-01-10T11:16:33;-0.50;54.40
6738;DHT22;3406;49.902;8.596;2024-01-10T11:19:15;-0.40;54.20
6738;DHT22;3406;49.902;8.596;2024-01-10T11:21:53;-0.30;54.10
6738;DHT22;3406;49.902;8.596;2024-01-10T11:24:23;-0.10;54.20
6738;DHT22;3406;49.902;8.596;2024-01-10T11:27:06;0.10;54.00
6738;DHT22;3406;49.902;8.596;2024-01-10T11:29:39;0.20;53.80
6738;DHT22;3406;49.902;8.596;2024-01-10T11:32:06;0.20;53.60
6738;DHT22;3406;49.902;8.596;2024-01-10T11:34:35;0.30;54.20
6738;DHT22;3406;49.902;8.596;2024-01-10T11:37:09;0.60;53.80
6738;DHT22;3406;49.902;8.596;2024-01-10T11:39:37;0.60;53.40
6738;DHT22;3406;49.902;8.596;2024-01-10T11:42:07;0.60;53.20
6738;DHT22;3406;49.902;8.596;2024-01-10T11:44:35;0.50;53.00
6738;DHT22;3406;49.902;8.596;2024-01-10T11:47:13;0.50;53.10
6738;DHT22;3406;49.902;8.596;2024-01-10T11:49:40;0.40;53.00
6738;DHT22;3406;49.902;8.596;2024-01-10T11:52:09;0.30;53.00
6738;DHT22;3406;49.902;8.596;2024-01-10T11:54:36;0.30;53.00
6738;DHT22;3406;49.902;8.596;2024-01-10T11:57:04;0.30;53.10
6738;DHT22;3406;49.902;8.596;2024-01-10T11:59:34;0.30;53.00
6738;DHT22;3406;49.902;8.596;2024-01-10T12:02:01;0.30;53.00
6738;DHT22;3406;49.902;8.596;2024-01-10T12:04:31;0.30;53.00
6738;DHT22;3406;49.902;8.596;2024-01-10T12:06:58;0.30;52.90
6738;DHT22;3406;49.902;8.596;2024-01-10T12:09:25;0.30;52.80
6738;DHT22;3406;49.902;8.596;2024-01-10T12:11:51;0.30;52.80
6738;DHT22;3406;49.902;8.596;2024-01-10T12:14:19;0.40;52.80
6738;DHT22;3406;49.902;8.596;2024-01-10T12:16:46;0.40;52.70
6738;DHT22;3406;49.902;8.596;2024-01-10T12:19:13;0.50;52.70
6738;DHT22;3406;49.902;8.596;2024-01-10T12:21:40;0.50;52.50
6738;DHT22;3406;49.902;8.596;2024-01-10T12:24:07;0.60;52.40
6738;DHT22;3406;49.902;8.596;2024-01-10T12:26:33;0.60;52.30
6738;DHT22;3406;49.902;8.596;2024-01-10T12:29:02;0.70;52.70
6738;DHT22;3406;49.902;8.596;2024-01-10T12:31:31;0.80;52.20
6738;DHT22;3406;49.902;8.596;2024-01-10T12:33:57;0.80;52.10
6738;DHT22;3406;49.902;8.596;2024-01-10T12:36:25;0.90;52.50
6738;DHT22;3406;49.902;8.596;2024-01-10T12:38:51;0.90;51.90
6738;DHT22;3406;49.902;8.596;2024-01-10T12:41:19;0.90;51.70
6738;DHT22;3406;49.902;8.596;2024-01-10T12:43:49;0.80;51.50
6738;DHT22;3406;49.902;8.596;2024-01-10T12:46:16;0.80;51.40
6738;DHT22;3406;49.902;8.596;2024-01-10T12:48:44;0.80;51.40
6738;DHT22;3406;49.902;8.596;2024-01-10T12:51:12;0.70;51.20
6738;DHT22;3406;49.902;8.596;2024-01-10T12:53:40;0.70;51.20
6738;DHT22;3406;49.902;8.596;2024-01-10T12:56:07;0.70;51.10
6738;DHT22;3406;49.902;8.596;2024-01-10T12:58:35;0.70;51.00
6738;DHT22;3406;49.902;8.596;2024-01-10T13:01:03;0.70;51.00
6738;DHT22;3406;49.902;8.596;2024-01-10T13:03:30;0.70;51.00
6738;DHT22;3406;49.902;8.596;2024-01-10T13:05:58;0.70;50.90
6738;DHT22;3406;49.902;8.596;2024-01-10T13:08:25;0.70;50.80
6738;DHT22;3406;49.902;8.596;2024-01-10T13:10:51;0.70;50.70
6738;DHT22;3406;49.902;8.596;2024-01-10T13:13:19;0.60;50.50
6738;DHT22;3406;49.902;8.596;2024-01-10T13:15:47;0.60;50.60
6738;DHT22;3406;49.902;8.596;2024-01-10T13:18:14;0.60;50.50
6738;DHT22;3406;49.902;8.596;2024-01-10T13:20:42;0.60;50.50
6738;DHT22;3406;49.902;8.596;2024-01-10T13:23:10;0.60;50.60
6738;DHT22;3406;49.902;8.596;2024-01-10T13:25:37;0.60;50.50
6738;DHT22;3406;49.902;8.596;2024-01-10T13:28:04;0.60;50.40
6738;DHT22;3406;49.902;8.596;2024-01-10T13:30:31;0.70;50.60
6738;DHT22;3406;49.902;8.596;2024-01-10T13:32:57;0.70;50.50
6738;DHT22;3406;49.902;8.596;2024-01-10T13:35:25;0.70;50.50
6738;DHT22;3406;49.902;8.596;2024-01-10T13:37:51;0.80;50.50
6738;DHT22;3406;49.902;8.596;2024-01-10T13:40:19;0.80;50.60
6738;DHT22;3406;49.902;8.596;2024-01-10T13:42:49;0.80;50.50
6738;DHT22;3406;49.902;8.596;2024-01-10T13:45:16;0.80;50.50
6738;DHT22;3406;49.902;8.596;2024-01-10T13:47:43;0.80;50.50
6738;DHT22;3406;49.902;8.596;2024-01-10T13:50:10;0.80;50.50
6738;DHT22;3406;49.902;8.596;2024-01-10T13:52:36;0.80;50.50
6738;DHT22;3406;49.902;8.596;2024-01-10T13:55:03;0.90;50.60
6738;DHT22;3406;49.902;8.596;2024-01-10T13:57:32;0.80;50.50
6738;DHT22;3406;49.902;8.596;2024-01-10T14:00:01;0.90;50.50
6738;DHT22;3406;49.902;8.596;2024-01-10T14:02:29;0.90;50.50
6738;DHT22;3406;49.902;8.596;2024-01-10T14:04:55;0.90;50.50
6738;DHT22;3406;49.902;8.596;2024-01-10T14:07:23;1.00;50.60
6738;DHT22;3406;49.902;8.596;2024-01-10T14:09:50;1.00;50.60
6738;DHT22;3406;49.902;8.596;2024-01-10T14:12:17;1.00;50.60
6738;DHT22;3406;49.902;8.596;2024-01-10T14:14:45;1.10;50.60
6738;DHT22;3406;49.902;8.596;2024-01-10T14:17:12;1.10;50.70
6738;DHT22;3406;49.902;8.596;2024-01-10T14:19:39;1.10;50.60
6738;DHT22;3406;49.902;8.596;2024-01-10T14:22:06;1.10;50.60
6738;DHT22;3406;49.902;8.596;2024-01-10T14:24:34;1.10;50.60
6738;DHT22;3406;49.902;8.596;2024-01-10T14:27:00;1.20;50.70
6738;DHT22;3406;49.902;8.596;2024-01-10T14:29:28;1.10;50.60
6738;DHT22;3406;49.902;8.596;2024-01-10T14:31:56;1.10;50.60
6738;DHT22;3406;49.902;8.596;2024-01-10T14:34:23;1.10;50.60
6738;DHT22;3406;49.902;8.596;2024-01-10T14:36:50;1.10;50.70
6738;DHT22;3406;49.902;8.596;2024-01-10T14:39:17;1.10;50.70
6738;DHT22;3406;49.902;8.596;2024-01-10T14:41:44;1.10;50.80
6738;DHT22;3406;49.902;8.596;2024-01-10T14:44:10;1.10;50.80
6738;DHT22;3406;49.902;8.596;2024-01-10T14:46:40;1.10;50.80
6738;DHT22;3406;49.902;8.596;2024-01-10T14:49:08;1.10;50.90
6738;DHT22;3406;49.902;8.596;2024-01-10T14:51:34;1.10;50.80
6738;DHT22;3406;49.902;8.596;2024-01-10T14:54:01;1.10;50.90
6738;DHT22;3406;49.902;8.596;2024-01-10T14:56:29;1.10;51.00
6738;DHT22;3406;49.902;8.596;2024-01-10T14:58:55;1.00;51.00
6738;DHT22;3406;49.902;8.596;2024-01-10T15:01:22;1.20;51.60
6738;DHT22;3406;49.902;8.596;2024-01-10T15:03:48;2.20;52.70
6738;DHT22;3406;49.902;8.596;2024-01-10T15:06:18;3.00;51.60
6738;DHT22;3406;49.902;8.596;2024-01-10T15:08:45;3.10;50.40
6738;DHT22;3406;49.902;8.596;2024-01-10T15:11:12;2.90;50.10
6738;DHT22;3406;49.902;8.596;2024-01-10T15:13:39;2.70;50.10
6738;DHT22;3406;49.902;8.596;2024-01-10T15:16:09;2.40;50.40
6738;DHT22;3406;49.902;8.596;2024-01-10T15:18:35;2.30;50.60
6738;DHT22;3406;49.902;8.596;2024-01-10T15:21:02;2.20;50.80
6738;DHT22;3406;49.902;8.596;2024-01-10T15:23:31;2.10;51.00
6738;DHT22;3406;49.902;8.596;2024-01-10T15:25:58;1.90;50.90
6738;DHT22;3406;49.902;8.596;2024-01-10T15:28:24;1.80;51.10
6738;DHT22;3406;49.902;8.596;2024-01-10T15:30:51;1.60;51.20
6738;DHT22;3406;49.902;8.596;2024-01-10T15:33:18;1.50;51.30
6738;DHT22;3406;49.902;8.596;2024-01-10T15:35:45;1.40;51.40
6738;DHT22;3406;49.902;8.596;2024-01-10T15:38:14;1.30;51.50
6738;DHT22;3406;49.902;8.596;2024-01-10T15:40:42;1.20;51.70
6738;DHT22;3406;49.902;8.596;2024-01-10T15:43:08;1.00;51.60
6738;DHT22;3406;49.902;8.596;2024-01-10T15:45:35;1.00;51.80
6738;DHT22;3406;49.902;8.596;2024-01-10T15:48:02;1.00;51.90
6738;DHT22;3406;49.902;8.596;2024-01-10T15:50:29;0.90;52.00
6738;DHT22;3406;49.902;8.596;2024-01-10T15:52:55;0.90;52.00
6738;DHT22;3406;49.902;8.596;2024-01-10T15:55:22;0.90;52.10
6738;DHT22;3406;49.902;8.596;2024-01-10T15:57:50;0.80;52.10
6738;DHT22;3406;49.902;8.596;2024-01-10T16:00:17;0.70;52.10
6738;DHT22;3406;49.902;8.596;2024-01-10T16:02:44;0.70;52.20
6738;DHT22;3406;49.902;8.596;2024-01-10T16:05:10;0.60;52.20
6738;DHT22;3406;49.902;8.596;2024-01-10T16:07:37;0.60;52.30
6738;DHT22;3406;49.902;8.596;2024-01-10T16:10:04;0.50;52.30